sensor_id;sensor_type;location;lat;lon;timestamp;P1;durP1;ratioP1;P2;durP2;ratioP2
50301;SDS011;36550;50.472;19.744;2022-09-09T00:02:22;10.40;;;7.35;;
50301;SDS011;36550;50.472;19.744;2022-09-09T00:05:17;10.10;;;7.58;;
50301;SDS011;36550;50.472;19.744;2022-09-09T00:08:07;9.83;;;6.95;;
50301;SDS011;36550;50.472;19.744;2022-09-09T00:10:57;9.78;;;6.58;;
50301;SDS011;36550;50.472;19.744;2022-09-09T00:13:46;9.60;;;7.28;;
50301;SDS011;36550;50.472;19.744;2022-09-09T00:16:32;8.15;;;7.35;;
50301;SDS011;36550;50.472;19.744;2022-09-09T00:19:24;9.30;;;7.42;;
50301;SDS011;36550;50.472;19.744;2022-09-09T00:22:20;10.43;;;7.42;;
50301;SDS011;36550;50.472;19.744;2022-09-09T00:25:19;9.28;;;8.38;;
50301;SDS011;36550;50.472;19.744;2022-09-09T00:28:18;9.68;;;8.40;;
50301;SDS011;36550;50.472;19.744;2022-09-09T00:31:15;9.23;;;7.17;;
50301;SDS011;36550;50.472;19.744;2022-09-09T00:33:58;10.58;;;8.65;;
50301;SDS011;36550;50.472;19.744;2022-09-09T00:36:57;11.63;;;9.18;;
50301;SDS011;36550;50.472;19.744;2022-09-09T00:39:44;11.00;;;9.63;;
50301;SDS011;36550;50.472;19.744;2022-09-09T00:52:51;9.15;;;8.25;;
50301;SDS011;36550;50.472;19.744;2022-09-09T00:58:15;12.23;;;9.78;;
50301;SDS011;36550;50.472;19.744;2022-09-09T01:01:04;9.98;;;8.90;;
50301;SDS011;36550;50.472;19.744;2022-09-09T01:03:55;14.33;;;9.63;;
50301;SDS011;36550;50.472;19.744;2022-09-09T01:06:44;9.58;;;8.50;;
50301;SDS011;36550;50.472;19.744;2022-09-09T01:12:40;8.80;;;7.50;;
50301;SDS011;36550;50.472;19.744;2022-09-09T01:15:27;10.60;;;8.28;;
50301;SDS011;36550;50.472;19.744;2022-09-09T01:18:15;10.25;;;8.25;;
50301;SDS011;36550;50.472;19.744;2022-09-09T01:24:32;9.45;;;7.10;;
50301;SDS011;36550;50.472;19.744;2022-09-09T01:27:32;9.73;;;8.35;;
50301;SDS011;36550;50.472;19.744;2022-09-09T01:30:18;9.83;;;7.42;;
50301;SDS011;36550;50.472;19.744;2022-09-09T01:33:02;11.68;;;8.13;;
50301;SDS011;36550;50.472;19.744;2022-09-09T01:35:52;10.35;;;7.25;;
50301;SDS011;36550;50.472;19.744;2022-09-09T01:38:46;9.43;;;7.40;;
50301;SDS011;36550;50.472;19.744;2022-09-09T01:41:31;9.23;;;6.90;;
50301;SDS011;36550;50.472;19.744;2022-09-09T01:44:15;7.17;;;6.45;;
50301;SDS011;36550;50.472;19.744;2022-09-09T01:47:01;8.70;;;7.03;;
50301;SDS011;36550;50.472;19.744;2022-09-09T01:49:47;9.08;;;6.70;;
50301;SDS011;36550;50.472;19.744;2022-09-09T01:52:31;8.88;;;7.22;;
50301;SDS011;36550;50.472;19.744;2022-09-09T01:55:21;7.78;;;7.05;;
50301;SDS011;36550;50.472;19.744;2022-09-09T02:04:27;8.98;;;8.08;;
50301;SDS011;36550;50.472;19.744;2022-09-09T02:10:28;8.93;;;7.85;;
50301;SDS011;36550;50.472;19.744;2022-09-09T02:13:20;8.83;;;7.92;;
50301;SDS011;36550;50.472;19.744;2022-09-09T02:16:19;10.30;;;7.58;;
50301;SDS011;36550;50.472;19.744;2022-09-09T02:19:35;9.10;;;7.40;;
50301;SDS011;36550;50.472;19.744;2022-09-09T02:22:27;9.18;;;7.80;;
50301;SDS011;36550;50.472;19.744;2022-09-09T02:25:14;10.10;;;8.33;;
50301;SDS011;36550;50.472;19.744;2022-09-09T02:28:02;9.15;;;7.95;;
50301;SDS011;36550;50.472;19.744;2022-09-09T02:30:50;9.40;;;7.97;;
50301;SDS011;36550;50.472;19.744;2022-09-09T02:33:38;12.95;;;9.30;;
50301;SDS011;36550;50.472;19.744;2022-09-09T02:36:30;9.55;;;8.35;;
50301;SDS011;36550;50.472;19.744;2022-09-09T02:39:16;9.95;;;7.83;;
50301;SDS011;36550;50.472;19.744;2022-09-09T02:42:01;9.30;;;7.65;;
50301;SDS011;36550;50.472;19.744;2022-09-09T02:44:47;11.38;;;9.00;;
50301;SDS011;36550;50.472;19.744;2022-09-09T02:47:35;11.40;;;8.48;;
50301;SDS011;36550;50.472;19.744;2022-09-09T02:50:33;10.00;;;8.25;;
50301;SDS011;36550;50.472;19.744;2022-09-09T02:53:42;14.13;;;8.90;;
50301;SDS011;36550;50.472;19.744;2022-09-09T02:56:42;9.63;;;7.45;;
50301;SDS011;36550;50.472;19.744;2022-09-09T02:59:38;10.55;;;8.70;;
50301;SDS011;36550;50.472;19.744;2022-09-09T03:05:08;13.10;;;9.85;;
50301;SDS011;36550;50.472;19.744;2022-09-09T03:07:52;12.20;;;9.88;;
50301;SDS011;36550;50.472;19.744;2022-09-09T03:10:36;13.30;;;9.75;;
50301;SDS011;36550;50.472;19.744;2022-09-09T03:13:20;11.20;;;9.50;;
50301;SDS011;36550;50.472;19.744;2022-09-09T03:16:05;12.75;;;10.35;;
50301;SDS011;36550;50.472;19.744;2022-09-09T03:18:49;14.35;;;9.30;;
50301;SDS011;36550;50.472;19.744;2022-09-09T03:21:34;12.40;;;9.03;;
50301;SDS011;36550;50.472;19.744;2022-09-09T03:24:18;12.05;;;9.25;;
50301;SDS011;36550;50.472;19.744;2022-09-09T03:27:03;14.63;;;9.30;;
50301;SDS011;36550;50.472;19.744;2022-09-09T03:29:47;11.57;;;9.35;;
50301;SDS011;36550;50.472;19.744;2022-09-09T03:35:17;12.45;;;9.00;;
50301;SDS011;36550;50.472;19.744;2022-09-09T03:38:02;13.35;;;9.63;;
50301;SDS011;36550;50.472;19.744;2022-09-09T03:40:53;11.18;;;9.00;;
50301;SDS011;36550;50.472;19.744;2022-09-09T03:43:40;12.85;;;9.15;;
50301;SDS011;36550;50.472;19.744;2022-09-09T03:46:25;11.80;;;8.93;;
50301;SDS011;36550;50.472;19.744;2022-09-09T03:49:10;13.60;;;9.53;;
50301;SDS011;36550;50.472;19.744;2022-09-09T03:51:58;13.35;;;10.23;;
50301;SDS011;36550;50.472;19.744;2022-09-09T03:54:40;13.72;;;10.03;;
50301;SDS011;36550;50.472;19.744;2022-09-09T03:57:25;14.15;;;10.55;;
50301;SDS011;36550;50.472;19.744;2022-09-09T04:00:10;15.55;;;10.68;;
50301;SDS011;36550;50.472;19.744;2022-09-09T04:02:55;13.60;;;10.68;;
50301;SDS011;36550;50.472;19.744;2022-09-09T04:05:40;12.40;;;10.60;;
50301;SDS011;36550;50.472;19.744;2022-09-09T04:08:25;13.90;;;10.95;;
50301;SDS011;36550;50.472;19.744;2022-09-09T04:11:10;15.00;;;10.67;;
50301;SDS011;36550;50.472;19.744;2022-09-09T04:13:54;15.48;;;10.60;;
50301;SDS011;36550;50.472;19.744;2022-09-09T04:16:39;14.13;;;11.03;;
50301;SDS011;36550;50.472;19.744;2022-09-09T04:22:09;13.13;;;10.48;;
50301;SDS011;36550;50.472;19.744;2022-09-09T04:24:53;13.28;;;10.40;;
50301;SDS011;36550;50.472;19.744;2022-09-09T04:27:37;13.98;;;11.00;;
50301;SDS011;36550;50.472;19.744;2022-09-09T04:30:21;13.48;;;10.90;;
50301;SDS011;36550;50.472;19.744;2022-09-09T04:33:07;14.25;;;11.90;;
50301;SDS011;36550;50.472;19.744;2022-09-09T04:35:51;15.55;;;11.45;;
50301;SDS011;36550;50.472;19.744;2022-09-09T04:38:37;20.02;;;12.35;;
50301;SDS011;36550;50.472;19.744;2022-09-09T04:41:21;17.60;;;13.03;;
50301;SDS011;36550;50.472;19.744;2022-09-09T04:44:06;17.32;;;13.15;;
50301;SDS011;36550;50.472;19.744;2022-09-09T04:46:50;17.48;;;13.05;;
50301;SDS011;36550;50.472;19.744;2022-09-09T04:49:34;19.85;;;12.70;;
50301;SDS011;36550;50.472;19.744;2022-09-09T04:52:20;15.00;;;11.93;;
50301;SDS011;36550;50.472;19.744;2022-09-09T04:55:05;14.30;;;11.73;;
50301;SDS011;36550;50.472;19.744;2022-09-09T04:57:50;14.65;;;11.80;;
50301;SDS011;36550;50.472;19.744;2022-09-09T05:00:34;15.85;;;10.93;;
50301;SDS011;36550;50.472;19.744;2022-09-09T05:03:19;12.30;;;9.68;;
50301;SDS011;36550;50.472;19.744;2022-09-09T05:06:04;9.48;;;8.48;;
50301;SDS011;36550;50.472;19.744;2022-09-09T05:08:52;10.50;;;8.90;;
50301;SDS011;36550;50.472;19.744;2022-09-09T05:11:36;11.68;;;8.90;;
50301;SDS011;36550;50.472;19.744;2022-09-09T05:14:21;10.23;;;8.43;;
50301;SDS011;36550;50.472;19.744;2022-09-09T05:17:05;11.75;;;8.75;;
50301;SDS011;36550;50.472;19.744;2022-09-09T05:19:50;9.80;;;7.70;;
50301;SDS011;36550;50.472;19.744;2022-09-09T05:22:34;12.88;;;9.05;;
50301;SDS011;36550;50.472;19.744;2022-09-09T05:25:19;10.20;;;8.90;;
50301;SDS011;36550;50.472;19.744;2022-09-09T05:28:06;9.98;;;8.73;;
50301;SDS011;36550;50.472;19.744;2022-09-09T05:30:57;12.47;;;9.90;;
50301;SDS011;36550;50.472;19.744;2022-09-09T05:33:51;10.78;;;9.15;;
50301;SDS011;36550;50.472;19.744;2022-09-09T05:36:35;11.88;;;10.03;;
50301;SDS011;36550;50.472;19.744;2022-09-09T05:39:19;12.18;;;9.43;;
50301;SDS011;36550;50.472;19.744;2022-09-09T05:42:04;11.93;;;10.10;;
50301;SDS011;36550;50.472;19.744;2022-09-09T05:44:48;15.15;;;11.65;;
50301;SDS011;36550;50.472;19.744;2022-09-09T05:47:35;16.00;;;11.25;;
50301;SDS011;36550;50.472;19.744;2022-09-09T05:50:20;17.98;;;11.88;;
50301;SDS011;36550;50.472;19.744;2022-09-09T05:53:04;17.77;;;12.05;;
50301;SDS011;36550;50.472;19.744;2022-09-09T05:55:48;16.42;;;12.15;;
50301;SDS011;36550;50.472;19.744;2022-09-09T05:58:34;20.15;;;12.88;;
50301;SDS011;36550;50.472;19.744;2022-09-09T06:01:19;20.97;;;13.17;;
50301;SDS011;36550;50.472;19.744;2022-09-09T06:04:09;16.67;;;11.75;;
50301;SDS011;36550;50.472;19.744;2022-09-09T06:06:54;18.52;;;12.73;;
50301;SDS011;36550;50.472;19.744;2022-09-09T06:09:38;18.23;;;12.55;;
50301;SDS011;36550;50.472;19.744;2022-09-09T06:12:22;20.35;;;13.80;;
50301;SDS011;36550;50.472;19.744;2022-09-09T06:15:06;17.80;;;13.35;;
50301;SDS011;36550;50.472;19.744;2022-09-09T06:17:55;20.52;;;12.88;;
50301;SDS011;36550;50.472;19.744;2022-09-09T06:20:40;19.90;;;12.50;;
50301;SDS011;36550;50.472;19.744;2022-09-09T06:23:24;18.23;;;12.65;;
50301;SDS011;36550;50.472;19.744;2022-09-09T06:26:16;14.55;;;11.18;;
50301;SDS011;36550;50.472;19.744;2022-09-09T06:29:03;14.05;;;10.95;;
50301;SDS011;36550;50.472;19.744;2022-09-09T06:31:47;19.75;;;13.50;;
50301;SDS011;36550;50.472;19.744;2022-09-09T06:34:32;15.83;;;12.80;;
50301;SDS011;36550;50.472;19.744;2022-09-09T06:37:16;17.95;;;11.53;;
50301;SDS011;36550;50.472;19.744;2022-09-09T06:40:00;15.48;;;10.45;;
50301;SDS011;36550;50.472;19.744;2022-09-09T06:42:44;14.00;;;10.30;;
50301;SDS011;36550;50.472;19.744;2022-09-09T06:45:29;14.33;;;10.70;;
50301;SDS011;36550;50.472;19.744;2022-09-09T06:48:13;13.00;;;9.83;;
50301;SDS011;36550;50.472;19.744;2022-09-09T06:51:01;13.55;;;8.88;;
50301;SDS011;36550;50.472;19.744;2022-09-09T06:53:58;13.08;;;9.05;;
50301;SDS011;36550;50.472;19.744;2022-09-09T06:56:45;14.15;;;9.13;;
50301;SDS011;36550;50.472;19.744;2022-09-09T06:59:30;11.48;;;7.97;;
50301;SDS011;36550;50.472;19.744;2022-09-09T07:02:14;11.53;;;8.60;;
50301;SDS011;36550;50.472;19.744;2022-09-09T07:04:58;15.53;;;8.13;;
50301;SDS011;36550;50.472;19.744;2022-09-09T07:07:43;9.77;;;7.40;;
50301;SDS011;36550;50.472;19.744;2022-09-09T07:10:27;11.90;;;7.37;;
50301;SDS011;36550;50.472;19.744;2022-09-09T07:13:11;9.33;;;7.10;;
50301;SDS011;36550;50.472;19.744;2022-09-09T07:16:04;8.10;;;5.62;;
50301;SDS011;36550;50.472;19.744;2022-09-09T07:18:53;9.95;;;6.40;;
50301;SDS011;36550;50.472;19.744;2022-09-09T07:21:40;9.20;;;6.33;;
50301;SDS011;36550;50.472;19.744;2022-09-09T07:24:24;13.60;;;5.95;;
50301;SDS011;36550;50.472;19.744;2022-09-09T07:27:10;9.80;;;6.65;;
50301;SDS011;36550;50.472;19.744;2022-09-09T07:29:54;13.18;;;7.53;;
50301;SDS011;36550;50.472;19.744;2022-09-09T07:32:38;10.15;;;7.17;;
50301;SDS011;36550;50.472;19.744;2022-09-09T07:35:23;13.60;;;6.45;;
50301;SDS011;36550;50.472;19.744;2022-09-09T07:38:07;13.95;;;6.35;;
50301;SDS011;36550;50.472;19.744;2022-09-09T07:40:52;8.30;;;4.75;;
50301;SDS011;36550;50.472;19.744;2022-09-09T07:43:41;7.55;;;4.25;;
50301;SDS011;36550;50.472;19.744;2022-09-09T07:46:27;12.13;;;4.45;;
50301;SDS011;36550;50.472;19.744;2022-09-09T07:49:12;7.40;;;4.20;;
50301;SDS011;36550;50.472;19.744;2022-09-09T07:51:57;14.00;;;5.45;;
50301;SDS011;36550;50.472;19.744;2022-09-09T07:54:42;11.83;;;5.77;;
50301;SDS011;36550;50.472;19.744;2022-09-09T07:57:26;7.90;;;4.87;;
50301;SDS011;36550;50.472;19.744;2022-09-09T08:00:11;5.00;;;3.67;;
50301;SDS011;36550;50.472;19.744;2022-09-09T08:02:58;6.03;;;3.60;;
50301;SDS011;36550;50.472;19.744;2022-09-09T08:05:44;6.95;;;4.17;;
50301;SDS011;36550;50.472;19.744;2022-09-09T08:08:28;4.70;;;2.50;;
50301;SDS011;36550;50.472;19.744;2022-09-09T08:11:14;4.65;;;2.35;;
50301;SDS011;36550;50.472;19.744;2022-09-09T08:13:59;6.87;;;3.08;;
50301;SDS011;36550;50.472;19.744;2022-09-09T08:16:44;5.63;;;2.07;;
50301;SDS011;36550;50.472;19.744;2022-09-09T08:19:31;3.87;;;2.42;;
50301;SDS011;36550;50.472;19.744;2022-09-09T08:22:17;6.72;;;2.47;;
50301;SDS011;36550;50.472;19.744;2022-09-09T08:25:02;7.73;;;3.00;;
50301;SDS011;36550;50.472;19.744;2022-09-09T08:27:49;3.85;;;2.37;;
50301;SDS011;36550;50.472;19.744;2022-09-09T08:30:33;7.37;;;2.00;;
50301;SDS011;36550;50.472;19.744;2022-09-09T08:33:17;3.50;;;2.20;;
50301;SDS011;36550;50.472;19.744;2022-09-09T08:36:01;3.95;;;2.40;;
50301;SDS011;36550;50.472;19.744;2022-09-09T08:38:47;2.67;;;1.87;;
50301;SDS011;36550;50.472;19.744;2022-09-09T08:45:14;5.62;;;2.75;;
50301;SDS011;36550;50.472;19.744;2022-09-09T08:48:08;3.60;;;2.12;;
50301;SDS011;36550;50.472;19.744;2022-09-09T08:51:08;9.48;;;2.22;;
50301;SDS011;36550;50.472;19.744;2022-09-09T08:53:52;5.83;;;2.40;;
50301;SDS011;36550;50.472;19.744;2022-09-09T08:56:38;4.22;;;2.45;;
50301;SDS011;36550;50.472;19.744;2022-09-09T08:59:23;8.68;;;2.42;;
50301;SDS011;36550;50.472;19.744;2022-09-09T09:05:19;7.05;;;2.90;;
50301;SDS011;36550;50.472;19.744;2022-09-09T09:08:31;5.95;;;2.50;;
50301;SDS011;36550;50.472;19.744;2022-09-09T09:11:49;7.47;;;2.45;;
50301;SDS011;36550;50.472;19.744;2022-09-09T09:14:40;3.80;;;2.00;;
50301;SDS011;36550;50.472;19.744;2022-09-09T09:17:28;3.95;;;1.90;;
50301;SDS011;36550;50.472;19.744;2022-09-09T09:20:15;3.37;;;1.87;;
50301;SDS011;36550;50.472;19.744;2022-09-09T09:23:02;2.65;;;1.60;;
50301;SDS011;36550;50.472;19.744;2022-09-09T09:25:48;1.82;;;1.55;;
50301;SDS011;36550;50.472;19.744;2022-09-09T09:28:35;3.22;;;1.50;;
50301;SDS011;36550;50.472;19.744;2022-09-09T09:31:20;3.87;;;1.50;;
50301;SDS011;36550;50.472;19.744;2022-09-09T09:34:07;3.30;;;1.57;;
50301;SDS011;36550;50.472;19.744;2022-09-09T09:36:56;6.00;;;1.90;;
50301;SDS011;36550;50.472;19.744;2022-09-09T09:39:44;3.67;;;1.80;;
50301;SDS011;36550;50.472;19.744;2022-09-09T09:42:29;2.00;;;1.30;;
50301;SDS011;36550;50.472;19.744;2022-09-09T09:48:14;2.52;;;1.60;;
50301;SDS011;36550;50.472;19.744;2022-09-09T09:53:49;2.72;;;1.42;;
50301;SDS011;36550;50.472;19.744;2022-09-09T09:56:35;2.27;;;1.40;;
50301;SDS011;36550;50.472;19.744;2022-09-09T09:59:32;2.50;;;1.40;;
50301;SDS011;36550;50.472;19.744;2022-09-09T10:02:20;2.92;;;1.35;;
50301;SDS011;36550;50.472;19.744;2022-09-09T10:05:18;3.37;;;1.50;;
50301;SDS011;36550;50.472;19.744;2022-09-09T10:08:13;2.25;;;1.40;;
50301;SDS011;36550;50.472;19.744;2022-09-09T10:15:00;2.10;;;1.32;;
50301;SDS011;36550;50.472;19.744;2022-09-09T10:27:18;2.65;;;1.25;;
50301;SDS011;36550;50.472;19.744;2022-09-09T10:33:51;2.02;;;1.60;;
50301;SDS011;36550;50.472;19.744;2022-09-09T10:36:45;2.17;;;1.37;;
50301;SDS011;36550;50.472;19.744;2022-09-09T10:39:35;2.90;;;1.20;;
50301;SDS011;36550;50.472;19.744;2022-09-09T10:42:26;3.33;;;1.12;;
50301;SDS011;36550;50.472;19.744;2022-09-09T10:45:23;2.65;;;1.17;;
50301;SDS011;36550;50.472;19.744;2022-09-09T10:48:39;2.75;;;1.10;;
50301;SDS011;36550;50.472;19.744;2022-09-09T10:54:41;2.45;;;1.30;;
50301;SDS011;36550;50.472;19.744;2022-09-09T11:00:36;2.33;;;1.20;;
50301;SDS011;36550;50.472;19.744;2022-09-09T11:06:17;3.20;;;1.20;;
50301;SDS011;36550;50.472;19.744;2022-09-09T11:09:05;3.25;;;1.10;;
50301;SDS011;36550;50.472;19.744;2022-09-09T11:14:41;2.77;;;1.20;;
50301;SDS011;36550;50.472;19.744;2022-09-09T11:17:31;2.33;;;1.30;;
50301;SDS011;36550;50.472;19.744;2022-09-09T11:20:33;1.50;;;1.00;;
50301;SDS011;36550;50.472;19.744;2022-09-09T11:23:20;1.55;;;1.05;;
50301;SDS011;36550;50.472;19.744;2022-09-09T11:26:08;0.80;;;0.72;;
50301;SDS011;36550;50.472;19.744;2022-09-09T11:29:10;1.45;;;0.90;;
50301;SDS011;36550;50.472;19.744;2022-09-09T11:32:19;1.05;;;0.80;;
50301;SDS011;36550;50.472;19.744;2022-09-09T11:38:25;1.40;;;0.80;;
50301;SDS011;36550;50.472;19.744;2022-09-09T11:41:14;4.37;;;1.00;;
50301;SDS011;36550;50.472;19.744;2022-09-09T11:43:59;0.95;;;0.70;;
50301;SDS011;36550;50.472;19.744;2022-09-09T11:52:35;2.40;;;1.27;;
50301;SDS011;36550;50.472;19.744;2022-09-09T11:55:25;1.32;;;0.90;;
50301;SDS011;36550;50.472;19.744;2022-09-09T11:58:15;2.08;;;0.95;;
50301;SDS011;36550;50.472;19.744;2022-09-09T12:01:02;2.90;;;1.20;;
50301;SDS011;36550;50.472;19.744;2022-09-09T12:04:05;1.95;;;1.00;;
50301;SDS011;36550;50.472;19.744;2022-09-09T12:07:04;1.20;;;0.85;;
50301;SDS011;36550;50.472;19.744;2022-09-09T12:09:59;1.10;;;0.75;;
50301;SDS011;36550;50.472;19.744;2022-09-09T12:12:51;1.47;;;0.90;;
50301;SDS011;36550;50.472;19.744;2022-09-09T12:18:24;3.47;;;1.60;;
50301;SDS011;36550;50.472;19.744;2022-09-09T12:21:21;3.17;;;1.30;;
50301;SDS011;36550;50.472;19.744;2022-09-09T12:24:38;3.40;;;2.00;;
50301;SDS011;36550;50.472;19.744;2022-09-09T12:27:36;1.92;;;1.35;;
50301;SDS011;36550;50.472;19.744;2022-09-09T12:30:31;1.80;;;1.20;;
50301;SDS011;36550;50.472;19.744;2022-09-09T12:33:33;1.70;;;1.00;;
50301;SDS011;36550;50.472;19.744;2022-09-09T12:36:29;1.70;;;1.02;;
50301;SDS011;36550;50.472;19.744;2022-09-09T12:39:17;1.50;;;0.98;;
50301;SDS011;36550;50.472;19.744;2022-09-09T12:42:14;1.25;;;0.95;;
50301;SDS011;36550;50.472;19.744;2022-09-09T12:45:03;2.27;;;1.07;;
50301;SDS011;36550;50.472;19.744;2022-09-09T12:47:57;4.03;;;1.10;;
50301;SDS011;36550;50.472;19.744;2022-09-09T12:50:48;1.50;;;1.00;;
50301;SDS011;36550;50.472;19.744;2022-09-09T12:53:35;2.27;;;1.00;;
50301;SDS011;36550;50.472;19.744;2022-09-09T12:56:26;2.08;;;1.30;;
50301;SDS011;36550;50.472;19.744;2022-09-09T12:59:24;2.67;;;1.30;;
50301;SDS011;36550;50.472;19.744;2022-09-09T13:02:24;1.50;;;1.30;;
50301;SDS011;36550;50.472;19.744;2022-09-09T13:05:13;2.12;;;1.10;;
50301;SDS011;36550;50.472;19.744;2022-09-09T13:08:02;2.92;;;1.17;;
50301;SDS011;36550;50.472;19.744;2022-09-09T13:10:55;3.77;;;1.00;;
50301;SDS011;36550;50.472;19.744;2022-09-09T13:13:53;1.20;;;1.00;;
50301;SDS011;36550;50.472;19.744;2022-09-09T13:16:40;2.47;;;1.00;;
50301;SDS011;36550;50.472;19.744;2022-09-09T13:19:24;2.35;;;1.20;;
50301;SDS011;36550;50.472;19.744;2022-09-09T13:22:14;1.20;;;0.98;;
50301;SDS011;36550;50.472;19.744;2022-09-09T13:28:19;2.70;;;1.12;;
50301;SDS011;36550;50.472;19.744;2022-09-09T13:31:19;4.90;;;2.62;;
50301;SDS011;36550;50.472;19.744;2022-09-09T13:34:11;4.40;;;2.33;;
50301;SDS011;36550;50.472;19.744;2022-09-09T13:37:20;3.37;;;1.12;;
50301;SDS011;36550;50.472;19.744;2022-09-09T13:40:21;3.85;;;1.12;;
50301;SDS011;36550;50.472;19.744;2022-09-09T13:43:11;3.98;;;1.65;;
50301;SDS011;36550;50.472;19.744;2022-09-09T13:46:03;3.30;;;1.20;;
50301;SDS011;36550;50.472;19.744;2022-09-09T13:48:58;3.47;;;1.50;;
50301;SDS011;36550;50.472;19.744;2022-09-09T13:52:09;5.50;;;1.70;;
50301;SDS011;36550;50.472;19.744;2022-09-09T13:54:57;1.72;;;1.07;;
50301;SDS011;36550;50.472;19.744;2022-09-09T13:58:04;2.10;;;1.42;;
50301;SDS011;36550;50.472;19.744;2022-09-09T14:00:39;8.68;;;3.90;;
50301;SDS011;36550;50.472;19.744;2022-09-09T14:03:24;1.67;;;1.20;;
50301;SDS011;36550;50.472;19.744;2022-09-09T14:06:09;1.37;;;1.10;;
50301;SDS011;36550;50.472;19.744;2022-09-09T14:08:54;2.02;;;1.00;;
50301;SDS011;36550;50.472;19.744;2022-09-09T14:11:39;1.45;;;1.05;;
50301;SDS011;36550;50.472;19.744;2022-09-09T14:14:23;2.05;;;1.20;;
50301;SDS011;36550;50.472;19.744;2022-09-09T14:17:09;2.00;;;0.98;;
50301;SDS011;36550;50.472;19.744;2022-09-09T14:19:53;2.70;;;1.30;;
50301;SDS011;36550;50.472;19.744;2022-09-09T14:22:37;2.37;;;1.10;;
50301;SDS011;36550;50.472;19.744;2022-09-09T14:28:08;2.35;;;1.20;;
50301;SDS011;36550;50.472;19.744;2022-09-09T14:31:00;2.30;;;1.55;;
50301;SDS011;36550;50.472;19.744;2022-09-09T14:33:47;2.25;;;1.10;;
50301;SDS011;36550;50.472;19.744;2022-09-09T14:36:31;1.70;;;1.10;;
50301;SDS011;36550;50.472;19.744;2022-09-09T14:39:16;2.15;;;1.10;;
50301;SDS011;36550;50.472;19.744;2022-09-09T14:42:00;2.22;;;1.10;;
50301;SDS011;36550;50.472;19.744;2022-09-09T14:47:30;1.75;;;1.10;;
50301;SDS011;36550;50.472;19.744;2022-09-09T14:50:14;1.73;;;1.13;;
50301;SDS011;36550;50.472;19.744;2022-09-09T14:52:58;1.20;;;1.00;;
50301;SDS011;36550;50.472;19.744;2022-09-09T14:55:43;2.08;;;1.10;;
50301;SDS011;36550;50.472;19.744;2022-09-09T14:58:30;2.02;;;1.40;;
50301;SDS011;36550;50.472;19.744;2022-09-09T15:01:15;1.80;;;1.10;;
50301;SDS011;36550;50.472;19.744;2022-09-09T15:04:04;1.60;;;1.20;;
50301;SDS011;36550;50.472;19.744;2022-09-09T15:06:51;4.15;;;1.30;;
50301;SDS011;36550;50.472;19.744;2022-09-09T15:09:37;2.62;;;1.15;;
50301;SDS011;36550;50.472;19.744;2022-09-09T15:12:21;1.90;;;1.32;;
50301;SDS011;36550;50.472;19.744;2022-09-09T15:15:06;2.40;;;1.10;;
50301;SDS011;36550;50.472;19.744;2022-09-09T15:17:52;2.47;;;1.20;;
50301;SDS011;36550;50.472;19.744;2022-09-09T15:20:36;9.10;;;1.53;;
50301;SDS011;36550;50.472;19.744;2022-09-09T15:23:21;3.03;;;1.30;;
50301;SDS011;36550;50.472;19.744;2022-09-09T15:26:05;3.67;;;1.60;;
50301;SDS011;36550;50.472;19.744;2022-09-09T15:28:50;4.90;;;1.60;;
50301;SDS011;36550;50.472;19.744;2022-09-09T15:31:34;2.30;;;1.10;;
50301;SDS011;36550;50.472;19.744;2022-09-09T15:34:19;3.77;;;1.30;;
50301;SDS011;36550;50.472;19.744;2022-09-09T15:37:03;3.65;;;1.20;;
50301;SDS011;36550;50.472;19.744;2022-09-09T15:39:47;3.30;;;1.20;;
50301;SDS011;36550;50.472;19.744;2022-09-09T15:42:32;2.73;;;1.40;;
50301;SDS011;36550;50.472;19.744;2022-09-09T15:45:16;4.85;;;2.12;;
50301;SDS011;36550;50.472;19.744;2022-09-09T15:48:00;7.72;;;2.40;;
50301;SDS011;36550;50.472;19.744;2022-09-09T15:50:45;3.80;;;1.70;;
50301;SDS011;36550;50.472;19.744;2022-09-09T15:53:30;3.30;;;1.40;;
50301;SDS011;36550;50.472;19.744;2022-09-09T15:56:18;2.08;;;1.30;;
50301;SDS011;36550;50.472;19.744;2022-09-09T15:59:02;2.30;;;1.20;;
50301;SDS011;36550;50.472;19.744;2022-09-09T16:01:47;2.07;;;1.27;;
50301;SDS011;36550;50.472;19.744;2022-09-09T16:04:33;3.17;;;1.40;;
50301;SDS011;36550;50.472;19.744;2022-09-09T16:07:18;2.95;;;1.52;;
50301;SDS011;36550;50.472;19.744;2022-09-09T16:10:02;4.60;;;1.40;;
50301;SDS011;36550;50.472;19.744;2022-09-09T16:12:47;3.87;;;1.60;;
50301;SDS011;36550;50.472;19.744;2022-09-09T16:15:32;2.83;;;1.52;;
50301;SDS011;36550;50.472;19.744;2022-09-09T16:18:17;3.90;;;2.30;;
50301;SDS011;36550;50.472;19.744;2022-09-09T16:21:01;35.27;;;20.03;;
50301;SDS011;36550;50.472;19.744;2022-09-09T16:23:48;49.58;;;30.68;;
50301;SDS011;36550;50.472;19.744;2022-09-09T16:26:35;29.05;;;18.80;;
50301;SDS011;36550;50.472;19.744;2022-09-09T16:29:22;22.65;;;11.93;;
50301;SDS011;36550;50.472;19.744;2022-09-09T16:32:07;13.43;;;7.28;;
50301;SDS011;36550;50.472;19.744;2022-09-09T16:34:51;11.68;;;4.87;;
50301;SDS011;36550;50.472;19.744;2022-09-09T16:37:36;9.25;;;3.55;;
50301;SDS011;36550;50.472;19.744;2022-09-09T16:40:20;5.58;;;2.52;;
50301;SDS011;36550;50.472;19.744;2022-09-09T16:43:04;8.00;;;3.12;;
50301;SDS011;36550;50.472;19.744;2022-09-09T16:45:50;7.75;;;2.80;;
50301;SDS011;36550;50.472;19.744;2022-09-09T16:48:34;6.90;;;3.90;;
50301;SDS011;36550;50.472;19.744;2022-09-09T16:51:23;5.78;;;2.90;;
50301;SDS011;36550;50.472;19.744;2022-09-09T16:54:09;9.97;;;3.20;;
50301;SDS011;36550;50.472;19.744;2022-09-09T16:56:55;10.58;;;3.08;;
50301;SDS011;36550;50.472;19.744;2022-09-09T16:59:40;9.40;;;2.73;;
50301;SDS011;36550;50.472;19.744;2022-09-09T17:02:25;14.75;;;6.53;;
50301;SDS011;36550;50.472;19.744;2022-09-09T17:05:09;11.00;;;4.58;;
50301;SDS011;36550;50.472;19.744;2022-09-09T17:07:53;10.98;;;4.08;;
50301;SDS011;36550;50.472;19.744;2022-09-09T17:10:42;10.45;;;3.33;;
50301;SDS011;36550;50.472;19.744;2022-09-09T17:13:26;9.48;;;3.02;;
50301;SDS011;36550;50.472;19.744;2022-09-09T17:16:11;11.97;;;2.72;;
50301;SDS011;36550;50.472;19.744;2022-09-09T17:18:58;8.70;;;3.95;;
50301;SDS011;36550;50.472;19.744;2022-09-09T17:21:42;10.13;;;3.45;;
50301;SDS011;36550;50.472;19.744;2022-09-09T17:24:27;7.62;;;3.58;;
50301;SDS011;36550;50.472;19.744;2022-09-09T17:27:12;11.28;;;4.12;;
50301;SDS011;36550;50.472;19.744;2022-09-09T17:29:57;10.90;;;3.27;;
50301;SDS011;36550;50.472;19.744;2022-09-09T17:32:41;5.63;;;3.27;;
50301;SDS011;36550;50.472;19.744;2022-09-09T17:35:26;11.90;;;3.27;;
50301;SDS011;36550;50.472;19.744;2022-09-09T17:38:11;10.77;;;3.47;;
50301;SDS011;36550;50.472;19.744;2022-09-09T17:43:56;9.55;;;3.27;;
50301;SDS011;36550;50.472;19.744;2022-09-09T17:46:42;8.65;;;3.55;;
50301;SDS011;36550;50.472;19.744;2022-09-09T17:49:26;7.20;;;3.60;;
50301;SDS011;36550;50.472;19.744;2022-09-09T17:52:11;13.05;;;3.92;;
50301;SDS011;36550;50.472;19.744;2022-09-09T17:54:55;13.90;;;4.03;;
50301;SDS011;36550;50.472;19.744;2022-09-09T17:57:40;10.38;;;4.08;;
50301;SDS011;36550;50.472;19.744;2022-09-09T18:00:24;8.00;;;3.72;;
50301;SDS011;36550;50.472;19.744;2022-09-09T18:03:08;11.65;;;4.20;;
50301;SDS011;36550;50.472;19.744;2022-09-09T18:05:52;9.68;;;4.83;;
50301;SDS011;36550;50.472;19.744;2022-09-09T18:08:46;11.88;;;5.03;;
50301;SDS011;36550;50.472;19.744;2022-09-09T18:11:35;11.50;;;5.45;;
50301;SDS011;36550;50.472;19.744;2022-09-09T18:14:29;9.58;;;5.67;;